Fulda, MN

9:31 AM CDT on May 25, 2015 (GMT -0500)
Slayton | | Change Station
CLOSE
Current Station
Airport
Location: Slayton,
Elevation: 1624 ft
Nearby Weather Stations

Elev 1624 ft 43.99 °N, 95.78 °W | Updated 38 minutes ago

Overcast
Overcast
60 °F
Feels Like 60 °F
N
10
Wind Variable Wind from WSW

Today
High -- | Low -- °F
--% Chance of Precip.
Yesterday
High -- | Low -- °F
Precip. -- in
5:47 AM 8:51 PM
Waxing Crescent, 49% visible
Pressure 29.74 in
Visibility 10.0 miles
Clouds Scattered Clouds 700 ft
Scattered Clouds 1200 ft
Overcast 3900 ft
Dew Point 58 °F
Humidity 94%
Rainfall 0.06 in
Snow Depth Not available.
UV 1 out of 12
Pollen 3.80 out of 12
Air Quality Not available.
Flu Activity Sporadic
METAR KDVP 251353Z AUTO 25009KT 10SM SCT007 SCT012 OVC039 15/14 A2974 RMK AO2 T01530143

More Conditions Fewer Conditions

Pressure 29.74 in
Visibility 10.0 miles
Clouds Scattered Clouds 700 ft
Scattered Clouds 1200 ft
Overcast 3900 ft
Dew Point 58 °F
Humidity 94%
Rainfall 0.06 in
Snow Depth Not available.
UV 1 out of 12
Pollen 3.80 out of 12
Air Quality Not available.
Flu Activity Sporadic
METAR KDVP 251353Z AUTO 25009KT 10SM SCT007 SCT012 OVC039 15/14 A2974 RMK AO2 T01530143

More Conditions Fewer Conditions

10-Day Weather Forecast

Almanac

Astronomy

May. 25, 2015 Rise Set
Actual Time
Civil Twilight
Nautical Twilight
Astronomical Twilight
Moon
Length of Visible Light
Length of Day
Tomorrow will be .
, % of the Moon is Illuminated

Today's Extremes

State Highs State Lows

Community

WunderPhotos

Upload Photos

1,824,024 photos uploaded!

WunderBlogs® & News

Nearby

Air Quality

  Air Quality AQ Index Pollutant
Not available.

Snow Depth

Station Depth Elevation

Earthquake Activity

City Distance Mag. Time & Date
Minimum magnitude displayed is 2.5.

Coastal Water Temperatures

Place Temperature

Stations

Nearby Weather Stations

Station Location Temp. Windchill Dew Point Humidity Wind Precip. Elev Updated Type